Terminal Aerodrome Forecast
Issued by NWS

Home | Current Version | Previous Version | Text Only | Print | Product List | Glossary Off
Versions: 1 2 3 4 5 6 7 8 9 10 11 12 13

000
FTUS43 KTOP 031133
TAFMHK
TAF
KMHK 031133Z 0312/0412 20010KT P6SM SCT090
     FM031500 19015G22KT P6SM FEW100
     FM040000 17008KT P6SM FEW100=

USA.gov is the U.S. government's official web portal to all federal, state and local government web resources and services.